sensor_id;sensor_type;location;lat;lon;timestamp;pressure;altitude;pressure_sealevel;temperature;humidity
16030;BME280;34770;49.272;11.070;2022-12-29T00:21:01;97283.03;;;5.21;87.31
16030;BME280;34770;49.272;11.070;2022-12-29T00:31:27;97275.22;;;5.23;87.23
16030;BME280;34770;49.272;11.070;2022-12-29T00:34:18;97293.56;;;5.19;88.17
16030;BME280;34770;49.272;11.070;2022-12-29T00:37:17;97289.34;;;5.22;88.49
16030;BME280;34770;49.272;11.070;2022-12-29T00:42:40;97388.72;;;5.82;89.39
16030;BME280;34770;49.272;11.070;2022-12-29T00:45:25;97326.28;;;5.30;90.23
16030;BME280;34770;49.272;11.070;2022-12-29T00:47:55;97314.38;;;5.17;90.66
16030;BME280;34770;49.272;11.070;2022-12-29T00:58:30;97378.72;;;5.38;93.84
16030;BME280;34770;49.272;11.070;2022-12-29T01:01:08;97282.72;;;4.75;93.53
16030;BME280;34770;49.272;11.070;2022-12-29T01:03:37;97271.84;;;4.79;93.29
16030;BME280;34770;49.272;11.070;2022-12-29T01:06:12;97274.13;;;4.77;93.33
16030;BME280;34770;49.272;11.070;2022-12-29T01:08:48;97286.88;;;4.90;93.90
16030;BME280;34770;49.272;11.070;2022-12-29T01:11:39;97257.19;;;4.87;92.30
16030;BME280;34770;49.272;11.070;2022-12-29T01:14:11;97297.06;;;4.99;92.51
16030;BME280;34770;49.272;11.070;2022-12-29T01:16:40;97263.59;;;4.70;93.19
16030;BME280;34770;49.272;11.070;2022-12-29T01:19:13;97285.16;;;4.77;94.82
16030;BME280;34770;49.272;11.070;2022-12-29T01:21:53;97269.25;;;4.83;93.78
16030;BME280;34770;49.272;11.070;2022-12-29T01:24:27;97278.75;;;4.94;93.46
16030;BME280;34770;49.272;11.070;2022-12-29T01:26:58;97263.53;;;4.88;92.84
16030;BME280;34770;49.272;11.070;2022-12-29T01:29:33;97231.34;;;4.71;93.06
16030;BME280;34770;49.272;11.070;2022-12-29T01:32:08;97257.63;;;4.98;93.30
16030;BME280;34770;49.272;11.070;2022-12-29T01:40:22;97345.06;;;6.05;89.45
16030;BME280;34770;49.272;11.070;2022-12-29T01:42:50;97240.91;;;5.33;90.36
16030;BME280;34770;49.272;11.070;2022-12-29T01:45:32;97219.31;;;5.35;89.33
16030;BME280;34770;49.272;11.070;2022-12-29T01:56:06;97222.47;;;5.67;86.79
16030;BME280;34770;49.272;11.070;2022-12-29T01:58:37;97294.50;;;6.04;87.73
16030;BME280;34770;49.272;11.070;2022-12-29T02:01:11;97311.72;;;6.10;87.60
16030;BME280;34770;49.272;11.070;2022-12-29T02:03:47;97237.03;;;5.55;88.74
16030;BME280;34770;49.272;11.070;2022-12-29T02:08:52;97224.75;;;5.44;88.28
16030;BME280;34770;49.272;11.070;2022-12-29T02:11:30;97212.78;;;5.40;88.63
16030;BME280;34770;49.272;11.070;2022-12-29T02:14:14;97228.66;;;5.43;88.58
16030;BME280;34770;49.272;11.070;2022-12-29T02:16:58;97229.06;;;5.33;89.46
16030;BME280;34770;49.272;11.070;2022-12-29T02:35:38;97316.09;;;6.45;86.21
16030;BME280;34770;49.272;11.070;2022-12-29T02:38:35;97204.25;;;5.75;86.65
16030;BME280;34770;49.272;11.070;2022-12-29T02:49:15;97226.28;;;6.05;84.71
16030;BME280;34770;49.272;11.070;2022-12-29T02:57:00;97249.31;;;6.09;85.51
16030;BME280;34770;49.272;11.070;2022-12-29T03:04:58;97176.28;;;5.77;83.60
16030;BME280;34770;49.272;11.070;2022-12-29T03:23:41;97143.06;;;5.52;83.33
16030;BME280;34770;49.272;11.070;2022-12-29T03:26:12;97157.66;;;5.52;84.69
16030;BME280;34770;49.272;11.070;2022-12-29T03:28:55;97195.69;;;5.68;85.13
16030;BME280;34770;49.272;11.070;2022-12-29T03:31:25;97161.34;;;5.35;86.10
16030;BME280;34770;49.272;11.070;2022-12-29T03:33:56;97183.03;;;5.46;86.99
16030;BME280;34770;49.272;11.070;2022-12-29T03:36:32;97274.25;;;5.91;87.78
16030;BME280;34770;49.272;11.070;2022-12-29T03:39:11;97166.31;;;5.00;89.86
16030;BME280;34770;49.272;11.070;2022-12-29T03:41:43;97166.97;;;4.97;90.15
16030;BME280;34770;49.272;11.070;2022-12-29T03:44:12;97275.47;;;5.61;90.40
16030;BME280;34770;49.272;11.070;2022-12-29T03:46:40;97272.44;;;5.53;91.71
16030;BME280;34770;49.272;11.070;2022-12-29T03:49:07;97273.38;;;5.57;90.31
16030;BME280;34770;49.272;11.070;2022-12-29T03:51:36;97208.75;;;5.07;90.59
16030;BME280;34770;49.272;11.070;2022-12-29T03:54:04;97193.97;;;5.12;89.17
16030;BME280;34770;49.272;11.070;2022-12-29T03:56:34;97278.19;;;5.69;89.43
16030;BME280;34770;49.272;11.070;2022-12-29T03:59:05;97164.56;;;4.95;89.23
16030;BME280;34770;49.272;11.070;2022-12-29T04:01:35;97267.47;;;5.68;89.12
16030;BME280;34770;49.272;11.070;2022-12-29T04:04:07;97173.19;;;5.15;88.12
16030;BME280;34770;49.272;11.070;2022-12-29T04:06:39;97251.00;;;5.50;88.51
16030;BME280;34770;49.272;11.070;2022-12-29T04:09:12;97203.66;;;5.18;89.01
16030;BME280;34770;49.272;11.070;2022-12-29T04:11:40;97188.25;;;5.17;88.46
16030;BME280;34770;49.272;11.070;2022-12-29T04:14:09;97150.97;;;4.90;89.21
16030;BME280;34770;49.272;11.070;2022-12-29T04:16:40;97148.50;;;4.88;89.30
16030;BME280;34770;49.272;11.070;2022-12-29T04:19:13;97153.22;;;4.88;89.29
16030;BME280;34770;49.272;11.070;2022-12-29T04:21:45;97155.00;;;4.92;89.02
16030;BME280;34770;49.272;11.070;2022-12-29T04:24:18;97263.03;;;5.54;89.94
16030;BME280;34770;49.272;11.070;2022-12-29T04:26:47;97130.47;;;4.70;91.15
16030;BME280;34770;49.272;11.070;2022-12-29T04:29:25;97196.03;;;4.94;91.27
16030;BME280;34770;49.272;11.070;2022-12-29T04:31:56;97156.75;;;4.67;91.96
16030;BME280;34770;49.272;11.070;2022-12-29T04:34:25;97189.13;;;4.79;92.92
16030;BME280;34770;49.272;11.070;2022-12-29T04:36:58;97264.31;;;5.27;95.41
16030;BME280;34770;49.272;11.070;2022-12-29T04:39:27;97191.13;;;4.70;96.00
16030;BME280;34770;49.272;11.070;2022-12-29T04:42:00;97195.09;;;4.51;97.55
16030;BME280;34770;49.272;11.070;2022-12-29T04:44:38;97144.09;;;4.27;100.00
16030;BME280;34770;49.272;11.070;2022-12-29T04:47:05;97150.78;;;4.18;100.00
16030;BME280;34770;49.272;11.070;2022-12-29T04:49:38;97193.31;;;4.46;100.00
16030;BME280;34770;49.272;11.070;2022-12-29T04:52:17;97192.72;;;4.32;100.00
16030;BME280;34770;49.272;11.070;2022-12-29T04:55:14;97158.78;;;4.02;100.00
16030;BME280;34770;49.272;11.070;2022-12-29T04:58:06;97248.75;;;4.54;100.00
16030;BME280;34770;49.272;11.070;2022-12-29T05:00:51;97179.00;;;4.06;100.00
16030;BME280;34770;49.272;11.070;2022-12-29T05:03:37;97162.66;;;4.01;100.00
16030;BME280;34770;49.272;11.070;2022-12-29T05:06:30;97126.13;;;3.56;100.00
16030;BME280;34770;49.272;11.070;2022-12-29T05:09:04;97145.69;;;3.72;100.00
16030;BME280;34770;49.272;11.070;2022-12-29T05:11:42;97152.03;;;3.64;100.00
16030;BME280;34770;49.272;11.070;2022-12-29T05:14:17;97196.22;;;3.85;100.00
16030;BME280;34770;49.272;11.070;2022-12-29T05:16:58;97208.34;;;3.84;100.00
16030;BME280;34770;49.272;11.070;2022-12-29T05:19:34;97226.00;;;3.83;100.00
16030;BME280;34770;49.272;11.070;2022-12-29T05:22:11;97268.13;;;4.10;100.00
16030;BME280;34770;49.272;11.070;2022-12-29T05:24:45;97161.25;;;3.24;100.00
16030;BME280;34770;49.272;11.070;2022-12-29T05:27:15;97160.59;;;3.27;100.00
16030;BME280;34770;49.272;11.070;2022-12-29T05:29:45;97146.69;;;3.15;100.00
16030;BME280;34770;49.272;11.070;2022-12-29T05:32:16;97139.41;;;3.10;100.00
16030;BME280;34770;49.272;11.070;2022-12-29T05:34:48;97172.75;;;3.35;100.00
16030;BME280;34770;49.272;11.070;2022-12-29T05:37:19;97171.28;;;3.20;100.00
16030;BME280;34770;49.272;11.070;2022-12-29T05:39:57;97231.84;;;3.73;100.00
16030;BME280;34770;49.272;11.070;2022-12-29T05:42:33;97195.59;;;3.53;100.00
16030;BME280;34770;49.272;11.070;2022-12-29T05:45:02;97244.63;;;3.86;100.00
16030;BME280;34770;49.272;11.070;2022-12-29T05:47:27;97267.13;;;3.97;100.00
16030;BME280;34770;49.272;11.070;2022-12-29T05:49:52;97276.38;;;3.92;100.00
16030;BME280;34770;49.272;11.070;2022-12-29T05:52:18;97242.03;;;3.90;100.00
16030;BME280;34770;49.272;11.070;2022-12-29T05:54:43;97251.25;;;4.11;100.00
16030;BME280;34770;49.272;11.070;2022-12-29T05:57:09;97252.50;;;4.40;100.00
16030;BME280;34770;49.272;11.070;2022-12-29T05:59:35;97236.50;;;4.72;98.70
16030;BME280;34770;49.272;11.070;2022-12-29T06:02:00;97262.13;;;5.11;96.25
16030;BME280;34770;49.272;11.070;2022-12-29T06:04:25;97243.28;;;5.43;92.04
16030;BME280;34770;49.272;11.070;2022-12-29T06:06:51;97243.81;;;5.79;88.13
16030;BME280;34770;49.272;11.070;2022-12-29T06:09:16;97243.81;;;5.79;87.18
16030;BME280;34770;49.272;11.070;2022-12-29T06:11:41;97265.19;;;5.91;86.33
16030;BME280;34770;49.272;11.070;2022-12-29T06:14:08;97261.16;;;5.88;85.67
16030;BME280;34770;49.272;11.070;2022-12-29T06:16:33;97278.94;;;6.00;85.23
16030;BME280;34770;49.272;11.070;2022-12-29T06:18:58;97249.34;;;5.79;85.19
16030;BME280;34770;49.272;11.070;2022-12-29T06:21:24;97257.63;;;5.79;84.53
16030;BME280;34770;49.272;11.070;2022-12-29T06:23:49;97278.41;;;6.06;83.92
16030;BME280;34770;49.272;11.070;2022-12-29T06:26:14;97277.59;;;6.06;83.69
16030;BME280;34770;49.272;11.070;2022-12-29T06:28:40;97261.28;;;5.92;83.65
16030;BME280;34770;49.272;11.070;2022-12-29T06:31:09;97278.47;;;5.98;84.32
16030;BME280;34770;49.272;11.070;2022-12-29T06:33:35;97281.09;;;6.15;82.36
16030;BME280;34770;49.272;11.070;2022-12-29T06:36:00;97262.56;;;5.95;83.41
16030;BME280;34770;49.272;11.070;2022-12-29T06:38:25;97266.94;;;5.96;83.44
16030;BME280;34770;49.272;11.070;2022-12-29T06:40:51;97279.28;;;5.77;84.61
16030;BME280;34770;49.272;11.070;2022-12-29T06:43:16;97270.03;;;5.94;83.30
16030;BME280;34770;49.272;11.070;2022-12-29T06:45:42;97272.06;;;5.85;83.48
16030;BME280;34770;49.272;11.070;2022-12-29T06:48:10;97278.38;;;5.85;83.60
16030;BME280;34770;49.272;11.070;2022-12-29T06:50:35;97288.22;;;5.95;83.52
16030;BME280;34770;49.272;11.070;2022-12-29T06:53:01;97253.72;;;5.80;83.23
16030;BME280;34770;49.272;11.070;2022-12-29T06:55:26;97291.88;;;5.87;83.48
16030;BME280;34770;49.272;11.070;2022-12-29T06:57:56;97281.47;;;5.84;83.77
16030;BME280;34770;49.272;11.070;2022-12-29T07:00:23;97274.91;;;5.76;83.91
16030;BME280;34770;49.272;11.070;2022-12-29T07:02:49;97266.88;;;5.83;83.84
16030;BME280;34770;49.272;11.070;2022-12-29T07:05:14;97271.56;;;5.83;82.99
16030;BME280;34770;49.272;11.070;2022-12-29T07:07:39;97282.56;;;5.91;82.40
16030;BME280;34770;49.272;11.070;2022-12-29T07:10:05;97264.66;;;5.98;82.92
16030;BME280;34770;49.272;11.070;2022-12-29T07:12:31;97282.38;;;6.18;81.31
16030;BME280;34770;49.272;11.070;2022-12-29T07:14:56;97284.88;;;6.11;81.52
16030;BME280;34770;49.272;11.070;2022-12-29T07:17:21;97296.78;;;6.02;82.92
16030;BME280;34770;49.272;11.070;2022-12-29T07:19:47;97292.69;;;6.09;82.45
16030;BME280;34770;49.272;11.070;2022-12-29T07:22:12;97282.09;;;5.89;81.74
16030;BME280;34770;49.272;11.070;2022-12-29T07:24:37;97311.09;;;6.04;82.51
16030;BME280;34770;49.272;11.070;2022-12-29T07:27:03;97292.41;;;6.22;81.28
16030;BME280;34770;49.272;11.070;2022-12-29T07:29:28;97300.78;;;6.14;82.69
16030;BME280;34770;49.272;11.070;2022-12-29T07:31:54;97275.03;;;6.01;82.77
16030;BME280;34770;49.272;11.070;2022-12-29T07:34:19;97323.03;;;6.17;83.21
16030;BME280;34770;49.272;11.070;2022-12-29T07:36:44;97310.06;;;6.30;82.84
16030;BME280;34770;49.272;11.070;2022-12-29T07:39:10;97310.84;;;6.52;81.36
16030;BME280;34770;49.272;11.070;2022-12-29T07:41:36;97315.94;;;6.62;81.01
16030;BME280;34770;49.272;11.070;2022-12-29T07:44:02;97311.47;;;6.70;80.90
16030;BME280;34770;49.272;11.070;2022-12-29T07:46:27;97309.72;;;6.65;80.87
16030;BME280;34770;49.272;11.070;2022-12-29T07:48:53;97313.75;;;6.68;81.46
16030;BME280;34770;49.272;11.070;2022-12-29T07:51:18;97280.09;;;6.53;81.03
16030;BME280;34770;49.272;11.070;2022-12-29T07:53:43;97287.59;;;6.65;80.77
16030;BME280;34770;49.272;11.070;2022-12-29T07:56:08;97310.81;;;6.85;80.94
16030;BME280;34770;49.272;11.070;2022-12-29T07:58:34;97317.97;;;6.86;80.58
16030;BME280;34770;49.272;11.070;2022-12-29T08:00:59;97314.72;;;6.84;81.24
16030;BME280;34770;49.272;11.070;2022-12-29T08:03:25;97325.94;;;6.88;81.52
16030;BME280;34770;49.272;11.070;2022-12-29T08:05:52;97297.41;;;6.75;80.98
16030;BME280;34770;49.272;11.070;2022-12-29T08:08:17;97314.13;;;6.79;81.32
16030;BME280;34770;49.272;11.070;2022-12-29T08:10:43;97295.34;;;6.72;80.73
16030;BME280;34770;49.272;11.070;2022-12-29T08:13:08;97291.31;;;6.69;80.85
16030;BME280;34770;49.272;11.070;2022-12-29T08:15:34;97313.34;;;6.91;81.25
16030;BME280;34770;49.272;11.070;2022-12-29T08:17:59;97324.66;;;6.98;81.07
16030;BME280;34770;49.272;11.070;2022-12-29T08:20:25;97283.84;;;6.82;80.31
16030;BME280;34770;49.272;11.070;2022-12-29T08:22:51;97302.41;;;6.82;81.85
16030;BME280;34770;49.272;11.070;2022-12-29T08:25:16;97316.38;;;6.98;81.13
16030;BME280;34770;49.272;11.070;2022-12-29T08:27:41;97317.88;;;6.95;81.13
16030;BME280;34770;49.272;11.070;2022-12-29T08:30:07;97283.69;;;6.66;81.95
16030;BME280;34770;49.272;11.070;2022-12-29T08:32:33;97319.63;;;7.00;80.97
16030;BME280;34770;49.272;11.070;2022-12-29T08:34:58;97319.63;;;7.12;80.50
16030;BME280;34770;49.272;11.070;2022-12-29T08:37:24;97310.97;;;7.01;80.92
16030;BME280;34770;49.272;11.070;2022-12-29T08:39:49;97302.78;;;6.93;80.73
16030;BME280;34770;49.272;11.070;2022-12-29T08:42:15;97318.94;;;7.15;80.48
16030;BME280;34770;49.272;11.070;2022-12-29T08:44:40;97327.38;;;7.19;80.06
16030;BME280;34770;49.272;11.070;2022-12-29T08:47:06;97261.94;;;6.90;80.14
16030;BME280;34770;49.272;11.070;2022-12-29T08:49:31;97295.63;;;7.16;80.41
16030;BME280;34770;49.272;11.070;2022-12-29T08:51:58;97319.19;;;7.35;79.68
16030;BME280;34770;49.272;11.070;2022-12-29T08:54:24;97271.75;;;6.99;80.49
16030;BME280;34770;49.272;11.070;2022-12-29T08:56:49;97303.84;;;7.25;80.50
16030;BME280;34770;49.272;11.070;2022-12-29T08:59:14;97320.22;;;7.43;80.47
16030;BME280;34770;49.272;11.070;2022-12-29T09:01:40;97304.19;;;7.36;80.02
16030;BME280;34770;49.272;11.070;2022-12-29T09:04:06;97281.13;;;7.32;79.74
16030;BME280;34770;49.272;11.070;2022-12-29T09:06:32;97322.63;;;7.69;79.45
16030;BME280;34770;49.272;11.070;2022-12-29T09:08:59;97344.31;;;7.79;79.14
16030;BME280;34770;49.272;11.070;2022-12-29T09:11:25;97326.53;;;7.80;79.90
16030;BME280;34770;49.272;11.070;2022-12-29T09:13:52;97276.72;;;7.56;79.61
16030;BME280;34770;49.272;11.070;2022-12-29T09:16:19;97331.47;;;7.99;79.42
16030;BME280;34770;49.272;11.070;2022-12-29T09:18:45;97332.50;;;8.07;78.93
16030;BME280;34770;49.272;11.070;2022-12-29T09:21:11;97335.16;;;8.16;78.82
16030;BME280;34770;49.272;11.070;2022-12-29T09:23:37;97330.16;;;8.22;78.57
16030;BME280;34770;49.272;11.070;2022-12-29T09:26:03;97331.06;;;8.26;78.66
16030;BME280;34770;49.272;11.070;2022-12-29T09:28:29;97326.06;;;8.31;78.65
16030;BME280;34770;49.272;11.070;2022-12-29T09:30:55;97327.00;;;8.36;79.02
16030;BME280;34770;49.272;11.070;2022-12-29T09:33:20;97287.19;;;8.15;78.62
16030;BME280;34770;49.272;11.070;2022-12-29T09:35:51;97322.59;;;8.47;78.34
16030;BME280;34770;49.272;11.070;2022-12-29T09:38:17;97326.03;;;8.56;78.10
16030;BME280;34770;49.272;11.070;2022-12-29T09:40:45;97326.22;;;8.64;78.45
16030;BME280;34770;49.272;11.070;2022-12-29T09:46:26;97323.66;;;8.71;78.74
16030;BME280;34770;49.272;11.070;2022-12-29T09:49:08;97286.06;;;8.73;77.24
16030;BME280;34770;49.272;11.070;2022-12-29T09:51:43;97302.31;;;9.03;77.51
16030;BME280;34770;49.272;11.070;2022-12-29T09:56:55;97307.78;;;9.00;78.27
16030;BME280;34770;49.272;11.070;2022-12-29T09:59:36;97308.47;;;8.97;78.44
16030;BME280;34770;49.272;11.070;2022-12-29T10:04:53;97273.28;;;8.85;79.99
16030;BME280;34770;49.272;11.070;2022-12-29T10:07:38;97283.22;;;9.02;79.01
16030;BME280;34770;49.272;11.070;2022-12-29T10:10:30;97302.50;;;9.26;78.84
16030;BME280;34770;49.272;11.070;2022-12-29T10:15:53;97307.06;;;9.35;78.70
16030;BME280;34770;49.272;11.070;2022-12-29T10:21:17;97303.72;;;9.45;78.59
16030;BME280;34770;49.272;11.070;2022-12-29T10:23:52;97305.81;;;9.48;79.07
16030;BME280;34770;49.272;11.070;2022-12-29T10:26:21;97304.19;;;9.47;79.99
16030;BME280;34770;49.272;11.070;2022-12-29T10:28:51;97264.06;;;9.45;78.80
16030;BME280;34770;49.272;11.070;2022-12-29T10:31:23;97282.97;;;9.74;77.49
16030;BME280;34770;49.272;11.070;2022-12-29T10:34:01;97280.00;;;9.83;76.71
16030;BME280;34770;49.272;11.070;2022-12-29T10:36:44;97254.56;;;9.81;76.72
16030;BME280;34770;49.272;11.070;2022-12-29T10:39:19;97259.28;;;9.81;76.22
16030;BME280;34770;49.272;11.070;2022-12-29T10:42:21;97250.06;;;9.77;76.82
16030;BME280;34770;49.272;11.070;2022-12-29T10:44:43;97272.78;;;9.98;76.46
16030;BME280;34770;49.272;11.070;2022-12-29T10:47:14;97267.44;;;9.89;76.77
16030;BME280;34770;49.272;11.070;2022-12-29T10:49:42;97251.84;;;9.85;76.28
16030;BME280;34770;49.272;11.070;2022-12-29T10:52:11;97265.00;;;9.88;76.57
16030;BME280;34770;49.272;11.070;2022-12-29T10:55:06;97261.81;;;9.86;76.89
16030;BME280;34770;49.272;11.070;2022-12-29T10:57:36;97232.38;;;9.65;76.96
16030;BME280;34770;49.272;11.070;2022-12-29T11:08:04;97236.19;;;9.77;76.97
16030;BME280;34770;49.272;11.070;2022-12-29T11:13:04;97233.50;;;10.00;75.87
16030;BME280;34770;49.272;11.070;2022-12-29T11:15:49;97258.75;;;10.30;74.90
16030;BME280;34770;49.272;11.070;2022-12-29T11:18:25;97245.97;;;10.45;75.23
16030;BME280;34770;49.272;11.070;2022-12-29T11:20:56;97198.53;;;10.18;75.47
16030;BME280;34770;49.272;11.070;2022-12-29T11:23:37;97245.78;;;10.58;74.40
16030;BME280;34770;49.272;11.070;2022-12-29T11:26:07;97245.94;;;10.65;74.19
16030;BME280;34770;49.272;11.070;2022-12-29T11:28:33;97239.81;;;10.79;73.58
16030;BME280;34770;49.272;11.070;2022-12-29T11:31:02;97240.13;;;10.74;73.61
16030;BME280;34770;49.272;11.070;2022-12-29T11:33:29;97202.94;;;10.62;72.94
16030;BME280;34770;49.272;11.070;2022-12-29T11:36:02;97204.91;;;10.62;73.27
16030;BME280;34770;49.272;11.070;2022-12-29T11:38:34;97240.69;;;10.83;73.48
16030;BME280;34770;49.272;11.070;2022-12-29T11:41:02;97231.28;;;10.91;73.21
16030;BME280;34770;49.272;11.070;2022-12-29T11:43:37;97228.19;;;10.96;73.26
16030;BME280;34770;49.272;11.070;2022-12-29T11:46:06;97134.78;;;10.29;73.59
16030;BME280;34770;49.272;11.070;2022-12-29T11:52:03;97212.22;;;10.93;73.26
16030;BME280;34770;49.272;11.070;2022-12-29T11:54:36;97156.06;;;10.64;73.23
16030;BME280;34770;49.272;11.070;2022-12-29T11:57:15;97223.72;;;11.15;73.61
16030;BME280;34770;49.272;11.070;2022-12-29T11:59:50;97118.41;;;10.47;73.86
16030;BME280;34770;49.272;11.070;2022-12-29T12:08:10;97192.19;;;11.07;73.25
16030;BME280;34770;49.272;11.070;2022-12-29T12:10:46;97130.22;;;10.64;73.28
16030;BME280;34770;49.272;11.070;2022-12-29T12:13:18;97226.34;;;11.31;73.77
16030;BME280;34770;49.272;11.070;2022-12-29T12:18:48;97232.31;;;11.29;73.91
16030;BME280;34770;49.272;11.070;2022-12-29T12:29:35;97114.78;;;10.43;74.72
16030;BME280;34770;49.272;11.070;2022-12-29T12:32:26;97158.34;;;10.82;74.99
16030;BME280;34770;49.272;11.070;2022-12-29T12:34:58;97135.41;;;10.65;74.68
16030;BME280;34770;49.272;11.070;2022-12-29T12:37:44;97229.63;;;11.37;74.65
16030;BME280;34770;49.272;11.070;2022-12-29T12:43:08;97113.91;;;10.62;74.29
16030;BME280;34770;49.272;11.070;2022-12-29T12:45:49;97220.38;;;11.29;75.47
16030;BME280;34770;49.272;11.070;2022-12-29T12:51:47;97226.28;;;11.27;75.24
16030;BME280;34770;49.272;11.070;2022-12-29T13:00:11;97114.63;;;10.59;75.03
16030;BME280;34770;49.272;11.070;2022-12-29T13:03:13;97217.66;;;11.32;75.18
16030;BME280;34770;49.272;11.070;2022-12-29T13:14:20;97174.97;;;11.01;74.23
16030;BME280;34770;49.272;11.070;2022-12-29T13:19:57;97224.72;;;11.26;75.19
16030;BME280;34770;49.272;11.070;2022-12-29T13:22:48;97151.50;;;10.76;75.22
16030;BME280;34770;49.272;11.070;2022-12-29T13:36:05;97224.41;;;11.08;76.37
16030;BME280;34770;49.272;11.070;2022-12-29T13:41:48;97099.59;;;10.17;76.45
16030;BME280;34770;49.272;11.070;2022-12-29T13:47:15;97162.50;;;10.45;77.80
16030;BME280;34770;49.272;11.070;2022-12-29T13:50:12;97156.66;;;10.31;78.65
16030;BME280;34770;49.272;11.070;2022-12-29T13:52:51;97251.81;;;10.83;79.63
16030;BME280;34770;49.272;11.070;2022-12-29T13:55:56;97168.72;;;10.19;80.73
16030;BME280;34770;49.272;11.070;2022-12-29T14:01:29;97241.59;;;10.67;83.74
16030;BME280;34770;49.272;11.070;2022-12-29T14:04:15;97139.28;;;9.95;84.19
16030;BME280;34770;49.272;11.070;2022-12-29T15:05:04;97149.13;;;8.82;92.29
16030;BME280;34770;49.272;11.070;2022-12-29T15:07:31;97188.41;;;9.16;93.15
16030;BME280;34770;49.272;11.070;2022-12-29T15:10:10;97167.28;;;8.95;93.14
16030;BME280;34770;49.272;11.070;2022-12-29T15:12:52;97156.72;;;8.85;93.50
16030;BME280;34770;49.272;11.070;2022-12-29T15:15:24;97194.22;;;9.10;93.54
16030;BME280;34770;49.272;11.070;2022-12-29T15:17:52;97167.81;;;8.85;94.29
16030;BME280;34770;49.272;11.070;2022-12-29T15:22:58;97188.16;;;8.89;94.90
16030;BME280;34770;49.272;11.070;2022-12-29T15:25:26;97189.78;;;8.90;95.09
16030;BME280;34770;49.272;11.070;2022-12-29T15:27:57;97255.72;;;9.45;95.56
16030;BME280;34770;49.272;11.070;2022-12-29T15:30:25;97185.00;;;8.90;95.18
16030;BME280;34770;49.272;11.070;2022-12-29T15:32:51;97191.63;;;8.86;95.03
16030;BME280;34770;49.272;11.070;2022-12-29T15:35:28;97192.09;;;8.88;96.02
16030;BME280;34770;49.272;11.070;2022-12-29T15:37:56;97216.34;;;9.07;95.17
16030;BME280;34770;49.272;11.070;2022-12-29T16:01:00;97203.34;;;8.63;98.25
16030;BME280;34770;49.272;11.070;2022-12-29T16:03:29;97279.38;;;9.06;98.86
16030;BME280;34770;49.272;11.070;2022-12-29T16:06:33;97273.38;;;9.04;99.83
16030;BME280;34770;49.272;11.070;2022-12-29T16:09:06;97184.75;;;8.48;99.83
16030;BME280;34770;49.272;11.070;2022-12-29T16:11:37;97161.88;;;8.38;99.88
16030;BME280;34770;49.272;11.070;2022-12-29T16:14:14;97172.28;;;8.41;100.00
16030;BME280;34770;49.272;11.070;2022-12-29T16:16:45;97187.63;;;8.51;100.00
16030;BME280;34770;49.272;11.070;2022-12-29T16:37:37;97229.13;;;8.48;100.00
16030;BME280;34770;49.272;11.070;2022-12-29T16:42:50;97189.13;;;8.20;100.00
16030;BME280;34770;49.272;11.070;2022-12-29T16:50:37;97274.44;;;8.84;100.00
16030;BME280;34770;49.272;11.070;2022-12-29T16:53:35;97186.16;;;8.13;100.00
16030;BME280;34770;49.272;11.070;2022-12-29T16:56:14;97180.22;;;8.27;100.00
16030;BME280;34770;49.272;11.070;2022-12-29T16:58:47;97170.53;;;8.21;100.00
16030;BME280;34770;49.272;11.070;2022-12-29T17:01:15;97183.22;;;8.22;100.00
16030;BME280;34770;49.272;11.070;2022-12-29T17:03:58;97180.44;;;8.22;100.00
16030;BME280;34770;49.272;11.070;2022-12-29T17:06:27;97200.00;;;8.41;100.00
16030;BME280;34770;49.272;11.070;2022-12-29T17:08:56;97169.13;;;8.27;100.00
16030;BME280;34770;49.272;11.070;2022-12-29T17:11:32;97271.75;;;8.87;100.00
16030;BME280;34770;49.272;11.070;2022-12-29T17:14:50;97287.16;;;9.01;100.00
16030;BME280;34770;49.272;11.070;2022-12-29T17:17:42;97280.25;;;8.94;100.00
16030;BME280;34770;49.272;11.070;2022-12-29T17:20:21;97256.50;;;8.65;100.00
16030;BME280;34770;49.272;11.070;2022-12-29T17:22:51;97247.91;;;8.70;100.00
16030;BME280;34770;49.272;11.070;2022-12-29T17:25:25;97185.03;;;8.30;99.80
16030;BME280;34770;49.272;11.070;2022-12-29T17:28:03;97173.47;;;8.28;99.86
16030;BME280;34770;49.272;11.070;2022-12-29T17:30:39;97297.00;;;8.98;99.81
16030;BME280;34770;49.272;11.070;2022-12-29T17:33:18;97177.75;;;8.09;100.00
16030;BME280;34770;49.272;11.070;2022-12-29T17:35:56;97192.00;;;8.24;99.97
16030;BME280;34770;49.272;11.070;2022-12-29T17:38:58;97244.44;;;8.57;99.61
16030;BME280;34770;49.272;11.070;2022-12-29T17:45:23;97351.81;;;9.01;100.00
16030;BME280;34770;49.272;11.070;2022-12-29T17:47:50;97372.13;;;9.05;100.00
16030;BME280;34770;49.272;11.070;2022-12-29T17:50:21;97311.63;;;8.38;100.00
16030;BME280;34770;49.272;11.070;2022-12-29T17:55:24;97294.88;;;8.06;100.00
16030;BME280;34770;49.272;11.070;2022-12-29T17:58:00;97292.47;;;7.92;100.00
16030;BME280;34770;49.272;11.070;2022-12-29T18:00:31;97270.22;;;7.76;100.00
16030;BME280;34770;49.272;11.070;2022-12-29T18:03:01;97370.75;;;8.42;100.00
16030;BME280;34770;49.272;11.070;2022-12-29T18:05:33;97292.13;;;7.94;100.00
16030;BME280;34770;49.272;11.070;2022-12-29T18:08:12;97376.91;;;8.36;100.00
16030;BME280;34770;49.272;11.070;2022-12-29T18:10:56;97365.72;;;8.32;100.00
16030;BME280;34770;49.272;11.070;2022-12-29T18:13:31;97246.84;;;7.49;100.00
16030;BME280;34770;49.272;11.070;2022-12-29T18:16:03;97256.19;;;7.44;100.00
16030;BME280;34770;49.272;11.070;2022-12-29T18:18:38;97284.44;;;7.62;100.00
16030;BME280;34770;49.272;11.070;2022-12-29T18:21:16;97242.47;;;7.35;100.00
16030;BME280;34770;49.272;11.070;2022-12-29T18:23:47;97248.13;;;7.27;100.00
16030;BME280;34770;49.272;11.070;2022-12-29T18:26:26;97357.94;;;7.97;100.00
16030;BME280;34770;49.272;11.070;2022-12-29T18:29:07;97364.06;;;7.90;100.00
16030;BME280;34770;49.272;11.070;2022-12-29T18:31:49;97261.06;;;7.23;100.00
16030;BME280;34770;49.272;11.070;2022-12-29T18:34:23;97263.38;;;7.21;100.00